Beechhurst, New York
Current Conditions -  °F | °C
As of 3:51 AM on Friday 31 Oct 2014 (Local Time) from KLGA Reporting Station
Broken Clouds Broken Clouds  
Wind Chill: 42°   Ceiling: 5000
Heat Index: 46°   Visibility: 10mi
Dew Point: 35°   Wind: 7mph
Humidity: 66%   Direction: 10°N
Pressure: 30.01"   Gusts: NA
Location:  40.7862°N, 73.811°W
Report Text: KLGA 310751Z 01006KT 10SM BKN050 08/02 A3001 RMK AO2 SLP161 T00780017
Loading
Personal Weather Stations






























Interactive Weather Map
Tropical Storm Tracking
New forecast layout! Learn more

10-Day Weather Forecast

Advertisements
Track Severe Weather on mobile